»·PEaware :: GTH922 KSNA-KLAS

GTH922 :: KSNA-KLAS

FLIGHT INFORMATION

Flight Status: Arrived
Operator: Unknown
More flights by this operator :: More flights under this callsign
Pilot: Sean B. (13609)
Aircraft: BOMBARDIER BD-100 CHALLENGER 300
(CL30)
More flights by this aircraft type
Origin: KSNA John Wayne-Orange Co
United States
Destination: KLAS McCarran Intl
United States
More flights between these airports :: More routes between these airports
Route: +FINZZ1 MISEN KEPEC4
File this flight plan on PilotEdge
Remarks:
Altitude:
(Current/Filed)
31,000ft
Speed:
(Current/Filed)
430kts
Departed: 08-Aug-17 11:53 AM
Arrived: 08-Aug-17 12:40 PM
Distance/Time
Traveled:
196nm/0:47
Distance/Time
To Go:
Arrived

Flight Plot

Page will automatically refresh every two minutes.

Flight plan parsing failed; only flown route is shown


Map Options




Map Legend


Flown Route
Filed Route
Departure Airport
Arrival Airport
Navaid (VOR, NDB)
Fix

Horizontal Profiles

Position Reports

Time Latitude Longitude Heading Altitude Ground
Speed
08-Aug-17 11:29 33.671156 -117.867634 24 52ft 0kts
08-Aug-17 11:30 33.671156 -117.867634 24 52ft 0kts
08-Aug-17 11:31 33.671156 -117.867634 24 52ft 0kts
08-Aug-17 11:32 33.671156 -117.867634 24 52ft 0kts
08-Aug-17 11:33 33.671156 -117.867634 24 52ft 0kts
08-Aug-17 11:34 33.671156 -117.867634 24 52ft 0kts
08-Aug-17 11:35 33.671156 -117.867634 24 52ft 0kts
08-Aug-17 11:36 33.671156 -117.867634 24 52ft 0kts
08-Aug-17 11:37 33.671156 -117.867634 24 52ft 0kts
08-Aug-17 11:38 33.671156 -117.867634 24 52ft 0kts
08-Aug-17 11:39 33.671156 -117.867634 24 52ft 0kts
08-Aug-17 11:40 33.671156 -117.867634 24 52ft 0kts
08-Aug-17 11:41 33.671156 -117.867634 24 52ft 0kts
08-Aug-17 11:42 33.671156 -117.867634 24 52ft 0kts
08-Aug-17 11:43 33.671156 -117.867634 24 52ft 0kts
08-Aug-17 11:44 33.671156 -117.867634 24 52ft 0kts
08-Aug-17 11:45 33.671156 -117.867634 24 52ft 0kts
08-Aug-17 11:46 33.671156 -117.867634 24 52ft 0kts
08-Aug-17 11:47 33.671156 -117.867634 24 52ft 0kts
08-Aug-17 11:48 33.671425 -117.867717 300 52ft 2kts
08-Aug-17 11:49 33.672257 -117.868022 31 52ft 5kts
08-Aug-17 11:50 33.673826 -117.866675 28 52ft 6kts
08-Aug-17 11:51 33.675787 -117.865409 27 52ft 14kts
08-Aug-17 11:52 33.679651 -117.862980 27 52ft 12kts
08-Aug-17 11:53 33.680663 -117.863107 298 52ft 0kts
08-Aug-17 11:54 33.680926 -117.863695 298 52ft 6kts
08-Aug-17 11:55 33.681335 -117.865261 207 52ft 0kts
08-Aug-17 11:56 33.664175 -117.876525 211 812ft 187kts
08-Aug-17 11:57 33.610662 -117.893135 186 5011ft 274kts
08-Aug-17 11:58 33.551309 -117.927347 222 6965ft 282kts
08-Aug-17 11:59 33.503142 -117.993210 263 12953ft 292kts
08-Aug-17 12:00 33.551414 -118.085160 318 16224ft 379kts
08-Aug-17 12:01 33.653468 -118.083788 20 20376ft 408kts
08-Aug-17 12:02 33.747234 -118.035416 23 22977ft 441kts
08-Aug-17 12:03 33.849820 -117.977285 24 26006ft 452kts
08-Aug-17 12:04 33.955739 -117.898636 35 28403ft 473kts
08-Aug-17 12:05 34.060429 -117.804298 36 30534ft 491kts
08-Aug-17 12:06 34.146619 -117.691518 50 30991ft 512kts
08-Aug-17 12:07 34.234360 -117.562531 50 31022ft 508kts
08-Aug-17 12:08 34.321084 -117.433302 50 31049ft 508kts
08-Aug-17 12:09 34.397647 -117.318727 51 31046ft 509kts
08-Aug-17 12:10 34.481045 -117.193188 51 31047ft 510kts
08-Aug-17 12:11 34.569502 -117.061397 50 30994ft 511kts
08-Aug-17 12:12 34.659745 -116.929900 50 30995ft 512kts
08-Aug-17 12:13 34.748019 -116.800970 50 30996ft 512kts
08-Aug-17 12:14 34.836841 -116.670384 50 30024ft 507kts
08-Aug-17 12:15 34.936022 -116.566558 38 27298ft 483kts
08-Aug-17 12:16 35.036738 -116.467923 38 24714ft 462kts
08-Aug-17 12:17 35.124214 -116.375357 44 23881ft 431kts
08-Aug-17 12:18 35.198256 -116.283543 46 22654ft 433kts
08-Aug-17 12:19 35.280946 -116.179940 46 20951ft 417kts
08-Aug-17 12:20 35.360551 -116.080936 44 19244ft 407kts
08-Aug-17 12:21 35.436760 -115.983880 46 17554ft 394kts
08-Aug-17 12:22 35.508839 -115.892251 46 15911ft 381kts
08-Aug-17 12:23 35.579021 -115.803007 47 14249ft 365kts
08-Aug-17 12:24 35.646131 -115.717507 47 13000ft 335kts
08-Aug-17 12:25 35.706513 -115.640396 47 13003ft 313kts
08-Aug-17 12:26 35.772545 -115.581931 7 13018ft 317kts
08-Aug-17 12:27 35.858734 -115.572261 4 12980ft 320kts
08-Aug-17 12:28 35.945613 -115.562394 23 12918ft 320kts
08-Aug-17 12:29 35.992304 -115.478740 65 11895ft 298kts
08-Aug-17 12:30 36.022793 -115.394208 68 10981ft 278kts
08-Aug-17 12:31 36.023945 -115.308434 94 10072ft 264kts
08-Aug-17 12:32 36.018841 -115.219016 95 9020ft 262kts
08-Aug-17 12:33 36.013892 -115.139034 96 8394ft 233kts
08-Aug-17 12:34 36.008993 -115.060856 95 7980ft 239kts
08-Aug-17 12:35 36.004774 -114.978220 95 7970ft 253kts
08-Aug-17 12:36 36.000297 -114.891983 93 7213ft 239kts
08-Aug-17 12:37 36.047165 -114.858509 356 6069ft 219kts
08-Aug-17 12:38 36.072831 -114.910547 271 5530ft 192kts
08-Aug-17 12:39 36.073403 -114.973867 271 4568ft 172kts
08-Aug-17 12:40 36.073576 -115.026700 271 3723ft 161kts
08-Aug-17 12:41 36.073664 -115.075174 270 2911ft 143kts
08-Aug-17 12:42 36.073680 -115.122397 271 2209ft 129kts
08-Aug-17 12:43 36.074451 -115.145324 295 2118ft 15kts
08-Aug-17 12:44 36.076110 -115.146565 359 2118ft 8kts
08-Aug-17 12:45 36.077371 -115.146583 359 2118ft 0kts
08-Aug-17 12:46 36.077851 -115.148385 275 2118ft 7kts
08-Aug-17 12:47 36.078047 -115.151054 270 2117ft 11kts
08-Aug-17 12:48 36.078038 -115.155714 270 2118ft 16kts
08-Aug-17 12:49 36.078043 -115.160651 266 2118ft 17kts
08-Aug-17 12:50 36.078019 -115.165800 270 2117ft 18kts
08-Aug-17 12:51 36.078048 -115.170649 293 2118ft 10kts
08-Aug-17 12:52 36.081007 -115.169442 12 2118ft 9kts
08-Aug-17 12:53 36.080743 -115.170446 179 2118ft 4kts
08-Aug-17 12:54 36.080517 -115.170659 270 2118ft 0kts
08-Aug-17 12:55 36.080517 -115.170659 270 2118ft 0kts
08-Aug-17 12:56 36.080517 -115.170659 270 2118ft 0kts
08-Aug-17 12:57 36.080517 -115.170659 270 2118ft 0kts
08-Aug-17 12:58 36.080517 -115.170659 270 2118ft 0kts

Navigation Log

Ident Type
Flight plan parsing failed, navigation log unavailable